Time;durP1;ratioP1;P1;durP2;ratioP2;P2;SDS_P1;SDS_P2;PMS_P1;PMS_P2;Temp;Humidity;BMP_temperature;BMP_pressure;BME280_temperature;BME280_humidity;BME280_pressure;Samples;Min_cycle;Max_cycle;Signal;HPM_P1;HPM_P2
2023/11/04 00:02:14;;;;;;;9.57;1.15;;;;;;;16.14;66.71;92524.44;5043184;28;20021;-78
2023/11/04 00:04:40;;;;;;;7.53;1.58;;;;;;;16.21;65.75;92529.81;5043054;28;20220;-79
2023/11/04 00:07:05;;;;;;;6.15;1.00;;;;;;;16.28;66.61;92517.53;5042661;28;20373;-78
2023/11/04 00:09:30;;;;;;;5.97;1.48;;;;;;;16.31;66.40;92522.94;5043229;28;20323;-79
2023/11/04 00:11:56;;;;;;;4.85;1.13;;;;;;;16.42;64.71;92502.22;5043081;28;20327;-79
2023/11/04 00:14:21;;;;;;;6.60;1.10;;;;;;;16.48;64.54;92512.56;5043262;28;20029;-79
2023/11/04 00:16:47;;;;;;;8.25;2.10;;;;;;;16.54;68.82;92514.50;5042912;28;20317;-79
2023/11/04 00:19:13;;;;;;;8.75;2.78;;;;;;;16.44;72.50;92531.38;5043076;28;20080;-79
2023/11/04 00:21:41;;;;;;;6.72;2.78;;;;;;;16.30;74.20;92504.47;5042396;28;20028;-79
2023/11/04 00:24:10;;;;;;;9.65;2.25;;;;;;;16.10;73.90;92499.47;5042756;28;20021;-79
2023/11/04 00:26:37;;;;;;;6.72;2.42;;;;;;;15.93;73.60;92506.31;5043104;28;20060;-79
2023/11/04 00:29:02;;;;;;;10.18;2.60;;;;;;;15.79;75.91;92520.47;5042893;28;20022;-79
2023/11/04 00:31:29;;;;;;;7.22;3.20;;;;;;;15.31;79.91;92519.84;5042574;28;20267;-78
2023/11/04 00:33:55;;;;;;;7.93;4.72;;;;;;;15.14;80.58;92507.81;5042633;28;20063;-78
2023/11/04 00:36:20;;;;;;;7.68;3.45;;;;;;;15.03;82.27;92511.22;5042700;28;20029;-78
2023/11/04 00:38:46;;;;;;;7.65;3.75;;;;;;;14.10;86.87;92518.44;5042919;28;20259;-80
2023/11/04 00:41:11;;;;;;;7.45;3.33;;;;;;;14.14;87.20;92505.09;5042954;28;20033;-79
2023/11/04 00:43:37;;;;;;;10.65;4.03;;;;;;;14.06;88.10;92506.91;5042699;28;20041;-79
2023/11/04 00:46:02;;;;;;;8.38;3.78;;;;;;;13.99;88.96;92518.34;5041503;28;20059;-80
2023/11/04 00:48:28;;;;;;;10.20;4.30;;;;;;;13.92;90.14;92514.81;5042864;28;20033;-79
2023/11/04 00:50:53;;;;;;;9.07;4.80;;;;;;;13.88;90.43;92495.25;5042724;28;20033;-80
2023/11/04 00:53:19;;;;;;;11.10;4.90;;;;;;;13.87;90.53;92499.09;5042987;28;20029;-80
2023/11/04 00:55:45;;;;;;;7.38;4.45;;;;;;;13.71;91.50;92508.09;5042980;28;20271;-80
2023/11/04 00:58:10;;;;;;;14.82;6.38;;;;;;;13.62;92.98;92504.94;5041151;28;20034;-80
2023/11/04 01:00:39;;;;;;;16.38;7.38;;;;;;;13.46;94.18;92491.72;5042750;28;20025;-80
2023/11/04 01:03:04;;;;;;;10.32;6.03;;;;;;;13.37;94.59;92473.28;5041347;28;20025;-80
2023/11/04 01:05:30;;;;;;;9.98;5.75;;;;;;;13.30;95.97;92477.78;5042621;28;20021;-79
2023/11/04 01:07:55;;;;;;;9.48;5.85;;;;;;;13.18;96.55;92470.69;5042512;28;20029;-79
2023/11/04 01:10:21;;;;;;;12.75;6.28;;;;;;;13.08;97.54;92460.63;5042667;28;20026;-79
2023/11/04 01:12:46;;;;;;;15.55;7.53;;;;;;;13.01;98.80;92472.78;5041293;28;20937;-79
2023/11/04 01:15:12;;;;;;;17.45;6.82;;;;;;;12.99;98.90;92458.25;5042464;28;20025;-79
2023/11/04 01:17:38;;;;;;;11.43;5.85;;;;;;;12.94;98.82;92453.94;5042325;28;20017;-80
2023/11/04 01:20:05;;;;;;;10.68;6.25;;;;;;;12.87;99.54;92451.19;5042680;28;20097;-80
2023/11/04 01:22:30;;;;;;;15.85;6.80;;;;;;;12.90;99.63;92450.47;5042436;28;20021;-80
2023/11/04 01:24:56;;;;;;;12.27;6.13;;;;;;;12.90;99.63;92453.13;5042598;28;20021;-80
2023/11/04 01:27:21;;;;;;;11.63;6.53;;;;;;;12.86;99.66;92460.34;5042586;28;20025;-80
2023/11/04 01:29:47;;;;;;;12.93;6.28;;;;;;;12.87;99.35;92448.53;5042279;28;20021;-80
2023/11/04 01:32:12;;;;;;;11.85;7.13;;;;;;;12.85;99.92;92458.81;5042487;28;20033;-80
2023/11/04 01:34:38;;;;;;;10.60;5.82;;;;;;;12.84;100.00;92473.28;5045035;28;20312;-80
2023/11/04 01:37:06;;;;;;;14.55;6.88;;;;;;;12.87;100.00;92488.63;5045719;28;20028;-80
2023/11/04 01:39:32;;;;;;;12.57;6.57;;;;;;;12.91;100.00;92476.09;5046033;28;20037;-80
2023/11/04 01:42:04;;;;;;;12.45;6.47;;;;;;;12.92;99.93;92509.69;5046185;28;20036;-80
2023/11/04 01:44:56;;;;;;;16.20;6.43;;;;;;;12.93;100.00;92538.00;5045919;28;20029;-80
2023/11/04 01:47:22;;;;;;;11.95;5.15;;;;;;;12.91;100.00;92553.63;5043494;28;20211;-80
2023/11/04 01:49:47;;;;;;;9.18;5.65;;;;;;;12.88;100.00;92586.44;5044065;28;20021;-80
2023/11/04 01:52:13;;;;;;;11.88;6.22;;;;;;;12.81;100.00;92575.63;5044986;28;20378;-80
2023/11/04 01:54:39;;;;;;;12.52;5.22;;;;;;;12.83;100.00;92565.34;5044978;28;20309;-80
2023/11/04 01:57:05;;;;;;;13.55;5.95;;;;;;;12.83;100.00;92563.44;5045194;28;20100;-79
2023/11/04 01:59:31;;;;;;;9.85;5.57;;;;;;;12.81;100.00;92555.00;5045431;28;20034;-79
2023/11/04 02:01:58;;;;;;;14.45;6.53;;;;;;;12.77;100.00;92558.75;5045366;28;20088;-80
2023/11/04 02:04:24;;;;;;;11.45;5.20;;;;;;;12.81;100.00;92556.91;5045287;28;20021;-80
2023/11/04 02:06:50;;;;;;;6.90;3.85;;;;;;;12.74;100.00;92551.44;5045832;28;20017;-82
2023/11/04 02:09:15;;;;;;;8.45;4.10;;;;;;;12.65;100.00;92549.78;5045256;28;20063;-81
2023/11/04 02:11:41;;;;;;;12.48;4.20;;;;;;;12.71;100.00;92542.25;5045214;28;20029;-80
2023/11/04 02:14:09;;;;;;;6.32;2.67;;;;;;;12.72;100.00;92524.28;5045110;28;20026;-80
2023/11/04 02:16:35;;;;;;;4.68;2.30;;;;;;;12.64;100.00;92526.88;5043908;28;20336;-80
2023/11/04 02:19:01;;;;;;;3.83;1.25;;;;;;;12.67;100.00;92517.34;5044989;28;20052;-81
2023/11/04 02:21:27;;;;;;;5.43;1.17;;;;;;;12.76;100.00;92519.78;5044947;28;20036;-82
2023/11/04 02:23:52;;;;;;;5.07;1.00;;;;;;;12.85;100.00;92501.59;5045140;28;20029;-80
2023/11/04 02:26:18;;;;;;;4.18;0.90;;;;;;;12.90;100.00;92477.19;5045629;28;20022;-81
2023/11/04 02:28:43;;;;;;;0.22;0.20;;;;;;;13.15;93.63;92461.50;5045453;28;20076;-81
2023/11/04 02:31:08;;;;;;;1.02;0.32;;;;;;;13.36;90.57;92455.66;5060697;28;20018;-82
2023/11/04 02:33:34;;;;;;;0.63;0.40;;;;;;;13.57;85.30;92452.47;5045222;28;20021;-82
2023/11/04 02:36:00;;;;;;;4.85;0.90;;;;;;;13.73;85.97;92480.94;5045029;28;20029;-82
2023/11/04 02:38:25;;;;;;;1.75;0.40;;;;;;;13.82;83.65;92487.56;5045205;28;20107;-82
2023/11/04 02:40:51;;;;;;;0.10;0.10;;;;;;;13.96;81.67;92516.41;5045098;28;20315;-83
2023/11/04 02:43:16;;;;;;;1.90;0.20;;;;;;;14.01;78.49;92515.31;5044980;28;20047;-82
2023/11/04 02:45:42;;;;;;;0.55;0.20;;;;;;;14.06;78.93;92517.63;5042600;28;20032;-82
2023/11/04 02:48:07;;;;;;;0.45;0.10;;;;;;;14.09;76.33;92500.84;5044526;28;20026;-82
2023/11/04 02:50:33;;;;;;;0.20;0.20;;;;;;;14.07;74.34;92480.94;5044621;28;20025;-82
2023/11/04 02:52:58;;;;;;;1.08;0.15;;;;;;;14.18;73.60;92479.88;5044481;28;20045;-81
2023/11/04 02:55:24;;;;;;;0.15;0.10;;;;;;;14.25;74.30;92492.59;5043248;28;20024;-82
2023/11/04 02:57:49;;;;;;;0.10;0.10;;;;;;;14.30;73.00;92484.19;5044232;28;20022;-81
2023/11/04 03:00:15;;;;;;;0.20;0.20;;;;;;;14.26;73.43;92478.03;5043833;28;20041;-78
2023/11/04 03:02:41;;;;;;;0.60;0.13;;;;;;;14.33;72.54;92485.34;5043791;28;20040;-81
2023/11/04 03:05:07;;;;;;;0.25;0.20;;;;;;;14.44;73.36;92475.50;5044027;28;20022;-83
2023/11/04 03:07:33;;;;;;;0.93;0.20;;;;;;;14.45;73.80;92480.50;5042750;28;20212;-81
2023/11/04 03:09:58;;;;;;;0.30;0.28;;;;;;;14.52;74.35;92485.16;5044359;28;20021;-81
2023/11/04 03:12:24;;;;;;;3.00;1.60;;;;;;;14.62;74.47;92473.75;5044091;28;20345;-82
2023/11/04 03:14:49;;;;;;;4.85;1.77;;;;;;;14.64;77.42;92466.13;5042777;28;20342;-81
2023/11/04 03:17:16;;;;;;;4.90;1.90;;;;;;;14.68;81.11;92454.66;5044033;28;20384;-81
2023/11/04 03:19:45;;;;;;;6.47;2.20;;;;;;;14.66;82.78;92449.66;5042754;28;20025;-82
2023/11/04 03:22:11;;;;;;;9.48;2.88;;;;;;;14.57;83.71;92454.56;5043768;28;20018;-81
2023/11/04 03:24:37;;;;;;;6.35;3.28;;;;;;;14.56;85.49;92469.13;5043962;28;20024;-81
2023/11/04 03:27:04;;;;;;;14.70;3.25;;;;;;;14.41;86.30;92457.47;5043646;28;20116;-81
2023/11/04 03:29:29;;;;;;;5.18;2.50;;;;;;;14.34;87.02;92458.19;5043790;28;20289;-81
2023/11/04 03:31:55;;;;;;;6.18;2.70;;;;;;;14.26;87.43;92456.59;5042566;28;20038;-81
2023/11/04 03:34:20;;;;;;;10.40;2.55;;;;;;;14.22;87.89;92443.16;5043778;28;20219;-81
2023/11/04 03:36:46;;;;;;;8.10;3.20;;;;;;;14.24;88.20;92408.72;5042423;28;20321;-80
2023/11/04 03:39:11;;;;;;;9.68;3.28;;;;;;;14.24;89.06;92392.63;5043400;28;20026;-80
2023/11/04 03:41:37;;;;;;;8.10;2.75;;;;;;;14.17;89.45;92392.59;5043668;28;20254;-81
2023/11/04 03:44:02;;;;;;;5.82;2.85;;;;;;;14.11;89.83;92410.16;5043544;28;20362;-80
2023/11/04 03:46:28;;;;;;;5.97;2.95;;;;;;;14.13;90.28;92407.88;5043548;28;20029;-81
2023/11/04 03:48:53;;;;;;;7.38;2.50;;;;;;;14.04;89.98;92396.69;5043561;28;20092;-81
2023/11/04 03:51:19;;;;;;;6.93;2.20;;;;;;;14.00;90.13;92401.25;5043644;28;20029;-81
2023/11/04 04:15:34;;;;;;;8.48;3.40;;;;;;;14.38;90.42;92402.69;5100805;28;20385;-86
2023/11/04 04:17:59;;;;;;;6.18;2.97;;;;;;;14.32;90.09;92404.19;5100396;28;20043;-87
2023/11/04 04:20:24;;;;;;;12.40;3.08;;;;;;;14.21;90.11;92396.06;5099400;28;20027;-87
2023/11/04 04:22:50;;;;;;;5.43;2.00;;;;;;;14.07;89.90;92403.22;5099282;28;20016;-87
2023/11/04 04:25:15;;;;;;;6.40;2.28;;;;;;;13.99;90.87;92386.31;5098951;28;20016;-87
2023/11/04 04:27:41;;;;;;;5.50;2.40;;;;;;;13.88;91.02;92390.81;5098989;28;20024;-87
2023/11/04 04:30:07;;;;;;;4.63;2.15;;;;;;;13.81;91.96;92420.97;5100155;28;20090;-86
2023/11/04 04:32:33;;;;;;;7.63;1.90;;;;;;;13.67;92.33;92400.19;5099899;28;20016;-87
2023/11/04 04:34:58;;;;;;;6.95;2.28;;;;;;;13.57;93.04;92427.59;5098794;28;20236;-86
2023/11/04 04:37:24;;;;;;;5.30;1.80;;;;;;;13.30;95.54;92483.13;5098812;28;20020;-86
2023/11/04 04:39:50;;;;;;;7.75;2.38;;;;;;;13.02;97.74;92525.13;5099974;28;20020;-86
2023/11/04 04:42:16;;;;;;;8.90;2.25;;;;;;;12.63;100.00;92572.66;5099720;28;20360;-82
2023/11/04 04:44:42;;;;;;;2.53;0.90;;;;;;;11.94;93.86;92562.66;5099733;28;20020;-83
2023/11/04 04:47:07;;;;;;;4.30;0.63;;;;;;;11.59;90.90;92574.16;5098425;28;20024;-83
2023/11/04 04:49:32;;;;;;;2.30;0.45;;;;;;;11.42;91.98;92543.31;5098469;28;20058;-82
2023/11/04 04:51:58;;;;;;;1.70;0.63;;;;;;;11.17;92.44;92510.81;5099460;28;20012;-83
2023/11/04 04:54:23;;;;;;;1.38;0.40;;;;;;;11.16;93.88;92545.81;5099404;28;20019;-82
2023/11/04 04:56:49;;;;;;;0.20;0.20;;;;;;;11.09;93.69;92514.41;5099514;28;20012;-84
2023/11/04 04:59:16;;;;;;;0.55;0.20;;;;;;;11.12;91.63;92512.97;5099490;28;20020;-84
2023/11/04 05:01:41;;;;;;;1.85;0.40;;;;;;;11.30;89.58;92479.44;5099332;28;20073;-84
2023/11/04 05:04:07;;;;;;;0.98;0.30;;;;;;;11.42;90.45;92449.19;5099078;28;20248;-84
2023/11/04 05:06:33;;;;;;;3.08;0.30;;;;;;;11.41;89.22;92445.72;5099155;28;20035;-84
2023/11/04 05:08:58;;;;;;;2.08;0.50;;;;;;;11.51;88.09;92467.63;5099400;28;20024;-86
2023/11/04 05:11:24;;;;;;;2.10;0.43;;;;;;;11.58;86.30;92465.09;5098020;28;20024;-85
2023/11/04 05:13:49;;;;;;;1.27;0.55;;;;;;;11.74;83.87;92459.66;5097983;28;20064;-83
2023/11/04 05:16:15;;;;;;;2.15;0.50;;;;;;;11.82;83.42;92480.03;5087047;28;20024;-83
2023/11/04 05:18:40;;;;;;;3.13;0.82;;;;;;;11.80;83.38;92488.38;5084141;28;20020;-83
2023/11/04 05:21:06;;;;;;;2.17;0.50;;;;;;;11.94;84.56;92513.84;5084120;28;20327;-83
2023/11/04 05:23:31;;;;;;;0.95;0.20;;;;;;;11.91;82.21;92490.53;5085385;28;20214;-84
2023/11/04 05:25:57;;;;;;;1.75;0.50;;;;;;;11.88;84.48;92483.19;5085421;28;20097;-84
2023/11/04 05:28:24;;;;;;;1.25;0.40;;;;;;;11.88;82.58;92483.94;5084564;28;20028;-84
2023/11/04 05:30:49;;;;;;;3.55;0.70;;;;;;;11.88;84.08;92491.19;5084038;28;20027;-85
2023/11/04 05:33:16;;;;;;;0.75;0.30;;;;;;;11.80;84.25;92477.69;5085345;28;20234;-81
2023/11/04 05:35:42;;;;;;;0.57;0.20;;;;;;;11.78;84.68;92453.25;5085318;28;20040;-80
2023/11/04 05:38:08;;;;;;;1.60;0.40;;;;;;;11.87;84.29;92434.38;5084987;28;20028;-81
2023/11/04 05:40:34;;;;;;;0.55;0.20;;;;;;;11.87;84.59;92444.28;5084882;28;20025;-81
2023/11/04 05:42:59;;;;;;;0.45;0.20;;;;;;;11.88;83.50;92446.56;5083941;28;20240;-81
2023/11/04 05:45:25;;;;;;;0.45;0.30;;;;;;;11.97;82.96;92443.72;5085045;28;20024;-87
2023/11/04 05:47:50;;;;;;;1.17;0.35;;;;;;;12.13;79.59;92411.53;5085285;28;20028;-83
2023/11/04 05:50:16;;;;;;;1.27;0.38;;;;;;;12.20;80.93;92428.44;5085081;28;20036;-83
2023/11/04 05:52:43;;;;;;;1.45;0.28;;;;;;;12.31;82.32;92433.19;5084898;28;20025;-83
2023/11/04 05:55:11;;;;;;;0.73;0.47;;;;;;;12.40;84.18;92447.09;5084563;28;20066;-81
2023/11/04 05:57:37;;;;;;;0.30;0.30;;;;;;;12.48;84.54;92506.75;5083717;28;20104;-83
2023/11/04 06:00:07;;;;;;;1.85;0.52;;;;;;;12.48;84.82;92510.19;5085061;28;20040;-84
2023/11/04 06:02:32;;;;;;;0.40;0.20;;;;;;;12.42;85.22;92517.72;5084841;28;20031;-82
2023/11/04 06:04:58;;;;;;;1.88;0.70;;;;;;;12.45;85.25;92513.56;5084733;28;20044;-82
2023/11/04 06:07:23;;;;;;;0.63;0.35;;;;;;;12.49;87.06;92506.38;5084671;28;20020;-81
2023/11/04 06:09:49;;;;;;;2.92;0.50;;;;;;;12.56;87.00;92505.75;5083419;28;20222;-80
2023/11/04 06:12:14;;;;;;;2.03;0.50;;;;;;;12.59;86.61;92524.47;5083344;28;20043;-80
2023/11/04 06:14:40;;;;;;;1.00;0.50;;;;;;;12.68;86.21;92539.50;5083309;28;20104;-81
2023/11/04 06:17:06;;;;;;;1.20;0.60;;;;;;;12.75;85.73;92510.22;5084644;28;20024;-81
2023/11/04 06:19:32;;;;;;;2.25;0.60;;;;;;;12.61;84.71;92484.81;5084475;28;20323;-81
2023/11/04 06:21:57;;;;;;;2.05;0.80;;;;;;;12.62;86.05;92435.56;5084464;28;20226;-81
2023/11/04 06:24:23;;;;;;;2.10;0.60;;;;;;;12.64;86.42;92411.94;5084506;28;20177;-81
2023/11/04 06:26:48;;;;;;;1.88;0.60;;;;;;;12.73;86.59;92409.00;5083357;28;20024;-82
2023/11/04 06:29:16;;;;;;;4.63;0.88;;;;;;;12.82;85.73;92416.72;5083973;28;20260;-81
2023/11/04 06:31:41;;;;;;;1.50;0.32;;;;;;;12.85;83.40;92419.47;5084271;28;20310;-80
2023/11/04 06:34:07;;;;;;;2.83;0.98;;;;;;;12.94;86.07;92451.28;5084079;28;20024;-79
2023/11/04 06:36:32;;;;;;;0.70;0.30;;;;;;;12.97;85.24;92439.88;5082753;28;20032;-81
2023/11/04 06:38:58;;;;;;;2.42;0.60;;;;;;;12.97;83.74;92468.53;5083906;28;20252;-81
2023/11/04 06:41:24;;;;;;;0.85;0.40;;;;;;;12.99;81.29;92477.72;5084001;28;20024;-81
2023/11/04 06:43:51;;;;;;;2.70;0.63;;;;;;;12.99;82.64;92491.09;5084241;28;20044;-81
2023/11/04 06:46:17;;;;;;;2.33;0.63;;;;;;;12.90;84.19;92509.28;5083943;28;20092;-81
2023/11/04 06:48:43;;;;;;;3.15;0.70;;;;;;;12.80;85.53;92485.84;5083741;28;20025;-80
2023/11/04 06:51:08;;;;;;;1.35;0.65;;;;;;;12.77;86.61;92468.63;5083564;28;20039;-84
2023/11/04 06:53:34;;;;;;;3.53;0.95;;;;;;;12.77;87.31;92446.47;5083564;28;20023;-83
2023/11/04 06:56:00;;;;;;;2.92;1.17;;;;;;;12.80;87.91;92425.13;5082647;28;20079;-82
2023/11/04 06:58:29;;;;;;;5.90;1.63;;;;;;;12.81;88.11;92410.63;5083554;28;20043;-83
2023/11/04 07:00:55;;;;;;;5.18;2.10;;;;;;;12.87;87.49;92415.69;5082463;28;20023;-84
2023/11/04 07:03:21;;;;;;;5.07;2.35;;;;;;;12.91;87.18;92419.94;5083583;28;20068;-81
2023/11/04 07:05:47;;;;;;;7.63;1.65;;;;;;;12.95;87.04;92444.06;5082411;28;20028;-82
2023/11/04 07:08:14;;;;;;;7.03;0.95;;;;;;;12.96;88.24;92454.38;5082073;28;20020;-82
2023/11/04 07:10:40;;;;;;;2.45;1.05;;;;;;;12.88;88.35;92439.34;5083696;28;20245;-81
2023/11/04 07:13:10;;;;;;;8.63;2.50;;;;;;;12.82;87.86;92444.28;5083269;28;20016;-81
2023/11/04 07:15:37;;;;;;;11.85;2.13;;;;;;;12.79;87.42;92446.88;5083189;28;20107;-81
2023/11/04 07:18:04;;;;;;;5.63;1.70;;;;;;;12.77;87.96;92465.19;5082950;28;20021;-80
2023/11/04 07:20:29;;;;;;;10.18;1.40;;;;;;;12.78;88.84;92464.03;5083104;28;20062;-81
2023/11/04 07:22:55;;;;;;;4.63;1.60;;;;;;;12.82;89.15;92480.91;5081950;28;20030;-81
2023/11/04 07:25:21;;;;;;;5.15;1.65;;;;;;;12.81;88.52;92506.13;5083043;28;20029;-80
2023/11/04 07:27:47;;;;;;;4.70;1.48;;;;;;;12.79;88.64;92514.50;5083134;28;20027;-81
2023/11/04 07:30:13;;;;;;;4.05;1.13;;;;;;;12.77;88.43;92499.94;5083332;28;20020;-82
2023/11/04 07:32:39;;;;;;;4.50;2.20;;;;;;;12.76;88.54;92493.84;5081991;28;20024;-82
2023/11/04 07:35:04;;;;;;;4.60;1.88;;;;;;;12.79;89.30;92495.00;5083025;28;20027;-83
2023/11/04 07:37:30;;;;;;;6.97;2.13;;;;;;;12.80;89.57;92524.06;5081953;28;20021;-83
2023/11/04 07:39:55;;;;;;;6.25;1.85;;;;;;;12.75;90.45;92536.97;5082844;28;20023;-82
2023/11/04 07:42:20;;;;;;;7.03;1.83;;;;;;;12.56;88.92;92519.88;5083383;28;20047;-82
2023/11/04 07:44:46;;;;;;;5.13;1.25;;;;;;;12.39;85.46;92515.00;5082952;28;20027;-82
2023/11/04 07:47:11;;;;;;;2.35;1.10;;;;;;;12.29;84.74;92510.25;5081819;28;20092;-82
2023/11/04 07:49:37;;;;;;;1.58;0.68;;;;;;;12.31;83.17;92518.69;5083183;28;20047;-77
2023/11/04 07:52:05;;;;;;;1.20;0.40;;;;;;;12.26;83.43;92535.00;5082711;28;20082;-79
2023/11/04 07:54:30;;;;;;;1.75;0.80;;;;;;;12.24;85.53;92541.47;5082881;28;20027;-87
2023/11/04 07:56:56;;;;;;;2.95;1.00;;;;;;;12.21;88.20;92534.19;5081494;28;20028;-82
2023/11/04 07:59:22;;;;;;;8.40;1.60;;;;;;;12.13;91.96;92537.84;5081836;28;20024;-82
2023/11/04 08:01:47;;;;;;;7.18;2.47;;;;;;;12.10;92.75;92537.78;5082707;28;20040;-81
2023/11/04 08:04:12;;;;;;;5.95;2.40;;;;;;;12.13;93.37;92527.16;5082722;28;20032;-81
2023/11/04 08:06:38;;;;;;;6.07;1.92;;;;;;;12.17;93.21;92544.03;5082766;28;20040;-81
2023/11/04 08:09:04;;;;;;;6.35;2.05;;;;;;;12.22;93.91;92557.09;5082653;28;20024;-81
2023/11/04 08:11:30;;;;;;;7.63;2.10;;;;;;;12.27;94.11;92553.34;5082705;28;20028;-81
2023/11/04 08:13:55;;;;;;;9.23;2.10;;;;;;;12.27;93.59;92555.25;5082541;28;20321;-82
2023/11/04 08:16:20;;;;;;;6.57;1.95;;;;;;;12.30;93.79;92565.22;5082884;28;20376;-82
2023/11/04 08:18:46;;;;;;;9.23;2.80;;;;;;;12.27;94.21;92558.69;5082663;28;20070;-82
2023/11/04 08:21:15;;;;;;;3.22;1.30;;;;;;;12.06;89.08;92540.38;5081624;28;20005;-80
2023/11/04 08:23:41;;;;;;;2.05;1.00;;;;;;;12.02;88.81;92534.19;5082413;28;20024;-81
2023/11/04 08:26:06;;;;;;;5.10;1.30;;;;;;;11.96;90.29;92535.63;5081466;28;20107;-81
2023/11/04 08:28:32;;;;;;;6.28;1.35;;;;;;;11.94;91.80;92546.66;5082589;28;20023;-82
2023/11/04 08:30:58;;;;;;;3.03;0.85;;;;;;;11.96;90.83;92495.56;5081365;28;20074;-81
2023/11/04 08:33:23;;;;;;;6.82;1.92;;;;;;;11.93;91.38;92408.19;5082214;28;20385;-81
2023/11/04 08:35:49;;;;;;;9.27;2.60;;;;;;;12.05;92.07;92397.31;5082459;28;20022;-81
2023/11/04 08:38:16;;;;;;;4.18;2.28;;;;;;;12.18;93.82;92389.88;5082531;28;20019;-82
2023/11/04 08:40:42;;;;;;;6.05;2.50;;;;;;;12.30;93.68;92402.28;5081978;28;20016;-82
2023/11/04 08:43:07;;;;;;;5.07;2.28;;;;;;;12.36;94.10;92400.84;5080751;28;20020;-83
2023/11/04 08:45:32;;;;;;;6.40;2.53;;;;;;;12.42;93.90;92383.38;5082086;28;20055;-83
2023/11/04 08:47:58;;;;;;;5.15;1.98;;;;;;;12.49;93.43;92390.72;5082171;28;20070;-83
2023/11/04 08:50:23;;;;;;;10.82;2.00;;;;;;;12.51;92.89;92391.88;5082073;28;20036;-82
2023/11/04 08:52:48;;;;;;;6.32;1.88;;;;;;;12.59;92.61;92388.16;5086045;28;20098;-83
2023/11/04 08:55:14;;;;;;;4.68;1.95;;;;;;;12.66;92.43;92387.53;5085999;28;20020;-83
2023/11/04 08:57:39;;;;;;;3.65;1.60;;;;;;;12.64;91.65;92385.19;5085892;28;20025;-84
2023/11/04 09:00:08;;;;;;;7.72;2.00;;;;;;;12.62;90.85;92382.13;5084607;28;20311;-84
2023/11/04 09:02:33;;;;;;;3.80;1.70;;;;;;;12.65;90.61;92375.28;5085773;28;20024;-84
2023/11/04 09:05:00;;;;;;;4.38;1.98;;;;;;;12.67;90.15;92373.00;5085730;28;20096;-84
2023/11/04 09:07:27;;;;;;;6.00;2.25;;;;;;;12.70;89.60;92360.81;5085757;28;20385;-84
2023/11/04 09:09:52;;;;;;;4.47;1.80;;;;;;;12.74;88.64;92350.94;5085785;28;20091;-84
2023/11/04 09:12:18;;;;;;;3.92;2.05;;;;;;;12.83;88.51;92349.53;5084574;28;20372;-84
2023/11/04 09:14:45;;;;;;;4.30;2.38;;;;;;;12.87;88.03;92356.84;5084365;28;20044;-85
2023/11/04 09:17:11;;;;;;;4.10;2.33;;;;;;;12.93;88.49;92347.38;5084088;28;20191;-85
2023/11/04 09:19:36;;;;;;;5.85;3.90;;;;;;;13.07;89.18;92346.75;5084242;28;20027;-84
2023/11/04 09:40:08;;;;;;;7.15;1.65;;;;;;;14.21;82.75;92314.94;5081627;27;20390;-89
2023/11/04 09:42:35;;;;;;;3.38;1.52;;;;;;;14.10;82.78;92322.09;5080759;28;20024;-90
2023/11/04 09:45:03;;;;;;;6.38;1.90;;;;;;;13.99;82.68;92319.34;5081019;28;20016;-89
2023/11/04 09:47:28;;;;;;;6.47;2.80;;;;;;;13.59;84.12;92308.31;5079668;28;20017;-88
2023/11/04 09:49:54;;;;;;;5.85;2.30;;;;;;;13.46;85.43;92309.75;5081121;28;20017;-89
2023/11/04 09:52:21;;;;;;;8.50;2.92;;;;;;;13.58;86.53;92304.09;5080834;28;20023;-89
2023/11/04 09:54:48;;;;;;;5.18;2.78;;;;;;;13.67;86.86;92308.38;5081176;28;20021;-87
2023/11/04 09:57:16;;;;;;;6.75;2.25;;;;;;;13.66;87.08;92307.63;5079599;28;20071;-82
2023/11/04 09:59:42;;;;;;;4.50;2.72;;;;;;;13.69;86.54;92306.88;5079549;28;20063;-83
2023/11/04 10:02:11;;;;;;;6.75;2.00;;;;;;;13.67;84.98;92308.38;5079482;28;20099;-80
2023/11/04 10:04:40;;;;;;;8.15;3.28;;;;;;;13.61;85.51;92315.97;5079095;28;20024;-81
2023/11/04 10:07:05;;;;;;;7.18;2.53;;;;;;;13.49;86.36;92318.94;5079396;28;20214;-81
2023/11/04 10:09:32;;;;;;;4.30;2.08;;;;;;;13.39;86.56;92318.47;5079229;28;20120;-81
2023/11/04 10:11:58;;;;;;;5.10;1.77;;;;;;;13.25;87.52;92329.78;5111772;28;20211;-82
2023/11/04 10:14:23;;;;;;;7.68;2.22;;;;;;;13.13;88.00;92338.06;5079390;28;20024;-89
2023/11/04 10:16:49;;;;;;;7.43;1.90;;;;;;;13.07;88.65;92309.28;5112950;28;20120;-89
2023/11/04 10:19:17;;;;;;;10.90;3.95;;;;;;;13.01;89.66;92295.50;5079175;28;20031;-89
2023/11/04 10:21:44;;;;;;;8.38;2.30;;;;;;;13.00;88.93;92273.31;5078219;28;20047;-92
2023/11/04 10:24:10;;;;;;;5.20;2.50;;;;;;;12.98;89.23;92250.75;5079539;28;20321;-90
2023/11/04 10:26:36;;;;;;;6.93;2.63;;;;;;;13.04;89.91;92252.72;5079076;28;20024;-93
2023/11/04 10:29:02;;;;;;;6.30;3.03;;;;;;;13.14;88.75;92239.84;5078984;28;20028;-86
2023/11/04 10:31:29;;;;;;;5.63;2.00;;;;;;;13.17;88.13;92229.19;5112151;28;20070;-86
2023/11/04 10:34:03;;;;;;;6.22;2.95;;;;;;;13.17;87.51;92239.88;5078415;28;20096;-86
2023/11/04 10:36:31;;;;;;;6.68;3.22;;;;;;;13.22;87.13;92262.84;5076115;28;20047;-86
2023/11/04 10:39:04;;;;;;;6.25;2.60;;;;;;;13.24;87.71;92268.59;5075997;28;20055;-85
2023/11/04 10:41:39;;;;;;;3.95;1.55;;;;;;;13.20;86.34;92297.22;5063939;28;20033;-86
2023/11/04 10:44:21;;;;;;;4.32;1.50;;;;;;;13.22;87.01;92329.72;5064761;28;20047;-86
2023/11/04 10:46:55;;;;;;;3.38;1.80;;;;;;;13.20;87.22;92332.75;5096868;28;20021;-86
2023/11/04 10:49:33;;;;;;;6.75;1.90;;;;;;;13.18;88.11;92310.19;5065162;28;20051;-86
2023/11/04 10:52:04;;;;;;;6.20;2.85;;;;;;;13.16;88.32;92277.69;5065269;28;20214;-85
2023/11/04 10:54:44;;;;;;;5.95;2.78;;;;;;;13.11;88.51;92261.97;5064159;28;20238;-85
2023/11/04 10:57:42;;;;;;;8.00;2.47;;;;;;;13.18;88.18;92256.69;5063732;28;20075;-85
2023/11/04 11:00:13;;;;;;;6.30;2.30;;;;;;;13.20;88.80;92276.59;5096552;28;20103;-86
2023/11/04 11:02:43;;;;;;;7.00;2.47;;;;;;;13.27;89.35;92286.59;5064782;28;20092;-85
2023/11/04 11:05:11;;;;;;;6.03;1.50;;;;;;;13.43;89.06;92310.47;5064994;28;20021;-86
2023/11/04 11:07:43;;;;;;;4.00;1.55;;;;;;;13.55;88.31;92320.91;5064774;28;20031;-86
2023/11/04 11:10:10;;;;;;;8.27;3.20;;;;;;;13.64;87.89;92312.59;5065077;28;20028;-86
2023/11/04 11:12:46;;;;;;;5.90;2.53;;;;;;;13.75;88.02;92320.69;5065081;28;20028;-85
2023/11/04 11:15:12;;;;;;;5.35;2.60;;;;;;;13.82;86.63;92300.09;5065125;28;20021;-86
2023/11/04 11:17:38;;;;;;;4.65;2.20;;;;;;;13.83;86.00;92258.78;5065058;28;20071;-86
2023/11/04 11:20:06;;;;;;;5.13;2.00;;;;;;;13.85;85.70;92251.16;5063677;28;20020;-85
2023/11/04 11:22:33;;;;;;;4.07;1.92;;;;;;;13.92;85.35;92222.88;5065054;28;20250;-85
2023/11/04 11:24:58;;;;;;;4.72;2.22;;;;;;;13.92;85.82;92196.88;5065000;28;20027;-85
2023/11/04 11:27:24;;;;;;;4.22;2.33;;;;;;;13.88;86.05;92206.00;5064938;28;20025;-85
2023/11/04 11:29:50;;;;;;;5.35;2.22;;;;;;;13.92;84.91;92214.84;5064500;28;20033;-85
2023/11/04 11:32:16;;;;;;;4.22;1.85;;;;;;;13.89;84.08;92159.34;5063413;28;20051;-86
2023/11/04 11:34:52;;;;;;;3.60;1.60;;;;;;;13.91;83.58;92199.94;5064771;28;20040;-86
2023/11/04 11:37:25;;;;;;;4.15;2.42;;;;;;;14.03;84.47;92218.38;5063424;28;20096;-86
2023/11/04 11:39:51;;;;;;;4.72;2.70;;;;;;;14.10;83.67;92205.00;5064413;28;20067;-86
2023/11/04 11:42:17;;;;;;;4.35;2.17;;;;;;;14.08;81.91;92209.19;5064545;28;20043;-86
2023/11/04 11:44:43;;;;;;;6.82;2.17;;;;;;;13.98;82.30;92210.66;5064291;28;20044;-86
2023/11/04 11:47:09;;;;;;;4.57;1.98;;;;;;;13.94;82.24;92178.53;5064390;28;20051;-86
2023/11/04 11:49:38;;;;;;;3.78;2.20;;;;;;;13.99;82.38;92174.72;5064343;28;20218;-85
2023/11/04 11:52:04;;;;;;;10.10;2.72;;;;;;;13.96;83.42;92180.81;5063322;28;20029;-85
2023/11/04 11:54:31;;;;;;;5.90;2.55;;;;;;;13.93;83.86;92182.34;5064301;28;20095;-85
2023/11/04 11:56:57;;;;;;;8.77;3.40;;;;;;;13.89;84.41;92202.22;5062844;28;20047;-85
2023/11/04 11:59:23;;;;;;;9.60;2.60;;;;;;;13.86;83.33;92209.09;5062969;28;20040;-85
2023/11/04 12:01:50;;;;;;;9.70;3.90;;;;;;;13.77;83.33;92206.72;5096657;28;20226;-85
2023/11/04 12:04:21;;;;;;;6.25;2.55;;;;;;;13.61;84.25;92201.63;5064075;28;20029;-85
2023/11/04 12:06:50;;;;;;;7.05;4.20;;;;;;;13.60;85.48;92212.72;5063740;28;20017;-85
2023/11/04 12:09:18;;;;;;;7.78;2.40;;;;;;;13.57;85.95;92219.56;5063874;28;20336;-85